createdAt,value
2022-11-14T00:02:33.473Z,28.40
2022-11-14T00:05:19.422Z,29.88
2022-11-14T00:08:04.989Z,29.52
2022-11-14T00:10:51.969Z,30.23
2022-11-14T00:13:37.423Z,28.13
2022-11-14T00:16:22.574Z,29.75
2022-11-14T00:19:07.868Z,28.35
2022-11-14T00:21:53.532Z,30.15
2022-11-14T00:24:38.930Z,28.92
2022-11-14T00:27:24.395Z,29.00
2022-11-14T00:30:10.253Z,29.00
2022-11-14T00:32:55.428Z,29.70
2022-11-14T00:35:40.694Z,28.45
2022-11-14T00:38:26.162Z,28.48
2022-11-14T00:41:11.461Z,29.13
2022-11-14T00:43:56.759Z,27.20
2022-11-14T00:46:42.175Z,26.95
2022-11-14T00:49:27.626Z,27.73
2022-11-14T00:52:12.896Z,28.38
2022-11-14T00:54:58.154Z,29.15
2022-11-14T00:57:43.408Z,28.02
2022-11-14T01:00:28.951Z,27.83
2022-11-14T01:03:14.525Z,28.23
2022-11-14T01:06:05.791Z,26.58
2022-11-14T01:08:52.082Z,27.02
2022-11-14T01:11:38.393Z,26.67
2022-11-14T01:14:23.830Z,27.25
2022-11-14T01:17:09.260Z,27.13
2022-11-14T01:19:55.026Z,26.75
2022-11-14T01:22:40.545Z,27.25
2022-11-14T01:25:25.721Z,27.10
2022-11-14T01:28:13.920Z,27.55
2022-11-14T01:31:15.185Z,27.50
2022-11-14T01:34:00.465Z,28.70
2022-11-14T01:36:45.836Z,27.17
2022-11-14T01:39:31.271Z,26.70
2022-11-14T01:42:17.704Z,27.92
2022-11-14T01:45:41.487Z,27.77
2022-11-14T01:48:38.022Z,27.45
2022-11-14T01:51:26.598Z,26.38
2022-11-14T01:54:24.176Z,27.52
2022-11-14T01:57:11.511Z,26.90
2022-11-14T02:00:01.088Z,27.75
2022-11-14T02:02:46.822Z,27.42
2022-11-14T02:05:32.951Z,26.58
2022-11-14T02:08:18.868Z,26.08
2022-11-14T02:11:04.320Z,27.42
2022-11-14T02:13:50.674Z,27.20
2022-11-14T02:16:36.057Z,26.25
2022-11-14T02:19:21.481Z,26.35
2022-11-14T02:22:06.824Z,26.33
2022-11-14T02:24:52.155Z,25.83
2022-11-14T02:27:39.748Z,25.85
2022-11-14T02:30:25.005Z,24.98
2022-11-14T02:33:11.496Z,25.73
2022-11-14T02:35:57.114Z,25.15
2022-11-14T02:38:42.517Z,25.60
2022-11-14T02:41:27.736Z,26.70
2022-11-14T02:44:13.414Z,26.80
2022-11-14T02:46:58.796Z,27.90
2022-11-14T02:49:44.136Z,27.88
2022-11-14T02:52:29.585Z,27.55
2022-11-14T02:55:15.331Z,28.63
2022-11-14T02:58:00.865Z,28.65
2022-11-14T03:01:13.564Z,28.27
2022-11-14T03:03:52.366Z,29.77
2022-11-14T03:06:37.582Z,29.13
2022-11-14T03:09:22.984Z,28.73
2022-11-14T03:12:08.257Z,29.63
2022-11-14T03:14:53.712Z,29.13
2022-11-14T03:17:39.079Z,28.90
2022-11-14T03:20:24.118Z,29.45
2022-11-14T03:23:09.439Z,29.55
2022-11-14T03:25:54.757Z,28.17
2022-11-14T03:28:41.086Z,28.73
2022-11-14T03:31:26.021Z,28.92
2022-11-14T03:34:12.828Z,28.35
2022-11-14T03:36:57.931Z,28.73
2022-11-14T03:39:43.257Z,28.63
2022-11-14T03:42:28.679Z,28.35
2022-11-14T03:45:13.942Z,28.88
2022-11-14T03:47:59.289Z,28.15
2022-11-14T03:50:44.419Z,27.88
2022-11-14T03:53:29.762Z,27.77
2022-11-14T03:56:15.131Z,29.73
2022-11-14T03:59:00.451Z,28.67
2022-11-14T04:01:45.802Z,28.30
2022-11-14T04:04:31.005Z,30.02
2022-11-14T04:07:16.348Z,30.95
2022-11-14T04:10:01.755Z,30.88
2022-11-14T04:12:51.559Z,30.60
2022-11-14T04:15:36.798Z,31.17
2022-11-14T04:18:22.350Z,30.95
2022-11-14T04:21:07.256Z,30.17
2022-11-14T04:23:52.691Z,31.95
2022-11-14T04:26:37.931Z,32.15
2022-11-14T04:29:23.476Z,30.90
2022-11-14T04:32:08.593Z,31.25
2022-11-14T04:34:54.003Z,33.28
2022-11-14T04:37:39.627Z,32.63
2022-11-14T04:40:24.928Z,30.48
2022-11-14T04:43:10.234Z,30.42
2022-11-14T04:45:55.454Z,29.67
2022-11-14T04:48:40.747Z,30.65
2022-11-14T04:51:26.114Z,30.65
2022-11-14T04:54:11.584Z,30.70
2022-11-14T04:56:56.847Z,31.73
2022-11-14T05:04:01.430Z,31.83
2022-11-14T05:07:34.532Z,30.65
2022-11-14T05:10:34.472Z,31.23
2022-11-14T05:16:47.233Z,30.45
2022-11-14T05:19:32.724Z,30.70
2022-11-14T05:22:30.416Z,31.50
2022-11-14T05:25:15.783Z,31.92
2022-11-14T05:28:01.951Z,32.92
2022-11-14T05:35:17.438Z,36.17
2022-11-14T05:38:05.691Z,27.63
2022-11-14T05:40:51.031Z,32.10
2022-11-14T05:50:47.470Z,32.30
2022-11-14T05:53:34.075Z,33.03
2022-11-14T05:56:19.191Z,33.35
2022-11-14T05:59:04.630Z,34.17
2022-11-14T06:01:49.974Z,34.63
2022-11-14T06:04:35.166Z,34.58
2022-11-14T06:07:20.755Z,33.30
2022-11-14T06:10:06.937Z,34.90
2022-11-14T06:12:52.603Z,34.45
2022-11-14T06:15:37.956Z,36.50
2022-11-14T06:18:23.335Z,34.47
2022-11-14T06:21:17.527Z,32.80
2022-11-14T06:24:03.038Z,33.90
2022-11-14T06:26:48.362Z,32.42
2022-11-14T06:29:35.661Z,33.63
2022-11-14T06:32:21.120Z,33.70
2022-11-14T06:35:08.503Z,32.22
2022-11-14T06:37:54.364Z,32.83
2022-11-14T06:40:40.067Z,32.38
2022-11-14T06:43:25.545Z,34.03
2022-11-14T06:46:12.895Z,32.15
2022-11-14T06:48:58.524Z,34.30
2022-11-14T06:51:43.962Z,34.30
2022-11-14T06:54:29.291Z,33.15
2022-11-14T06:57:14.765Z,33.15
2022-11-14T07:00:00.325Z,33.45
2022-11-14T07:02:46.861Z,34.75
2022-11-14T07:05:32.328Z,33.20
2022-11-14T07:08:21.002Z,33.42
2022-11-14T07:11:12.746Z,33.97
2022-11-14T07:14:04.029Z,33.22
2022-11-14T07:19:35.215Z,34.38
2022-11-14T07:22:20.826Z,33.72
2022-11-14T07:25:06.968Z,34.22
2022-11-14T07:27:52.628Z,33.53
2022-11-14T07:30:37.994Z,34.60
2022-11-14T07:33:23.207Z,34.63
2022-11-14T07:36:09.602Z,35.25
2022-11-14T07:38:55.099Z,33.55
2022-11-14T07:41:41.208Z,33.10
2022-11-14T07:44:26.836Z,33.42
2022-11-14T07:47:12.197Z,33.90
2022-11-14T07:49:57.491Z,33.20
2022-11-14T07:52:42.986Z,32.78
2022-11-14T07:55:28.323Z,32.42
2022-11-14T07:58:13.857Z,33.35
2022-11-14T08:01:03.150Z,31.70
2022-11-14T08:03:48.597Z,32.45
2022-11-14T08:06:34.173Z,31.73
2022-11-14T08:09:19.571Z,32.08
2022-11-14T08:12:05.435Z,32.67
2022-11-14T08:14:50.901Z,32.33
2022-11-14T08:17:36.344Z,33.42
2022-11-14T08:20:21.772Z,31.38
2022-11-14T08:23:07.743Z,31.98
2022-11-14T08:25:53.307Z,30.90
2022-11-14T08:28:38.879Z,31.30
2022-11-14T08:31:25.087Z,31.98
2022-11-14T08:34:10.587Z,32.38
2022-11-14T08:36:57.452Z,33.60
2022-11-14T08:39:42.874Z,32.92
2022-11-14T08:42:28.962Z,31.88
2022-11-14T08:45:14.582Z,31.88
2022-11-14T08:48:00.248Z,31.83
2022-11-14T08:50:45.450Z,31.58
2022-11-14T08:53:31.533Z,32.08
2022-11-14T08:56:16.668Z,30.80
2022-11-14T08:59:05.703Z,31.83
2022-11-14T09:01:51.458Z,31.98
2022-11-14T09:04:37.213Z,31.25
2022-11-14T09:07:22.877Z,30.98
2022-11-14T09:10:08.647Z,30.65
2022-11-14T09:12:59.005Z,30.27
2022-11-14T09:15:44.954Z,30.13
2022-11-14T09:18:31.373Z,29.17
2022-11-14T09:21:17.019Z,29.90
2022-11-14T09:24:02.334Z,29.02
2022-11-14T09:26:54.992Z,29.65
2022-11-14T09:29:41.711Z,29.55
2022-11-14T09:32:27.182Z,28.48
2022-11-14T09:35:12.952Z,29.42
2022-11-14T09:38:09.356Z,28.73
2022-11-14T09:41:06.578Z,27.20
2022-11-14T09:44:22.801Z,29.20
2022-11-14T09:47:20.538Z,27.58
2022-11-14T09:50:28.963Z,28.40
2022-11-14T09:53:29.243Z,28.33
2022-11-14T09:56:21.700Z,29.13
2022-11-14T09:59:14.828Z,27.50
2022-11-14T10:02:21.773Z,28.80
2022-11-14T10:05:25.782Z,25.80
2022-11-14T10:08:29.308Z,29.38
2022-11-14T10:11:28.540Z,24.33
2022-11-14T10:14:23.099Z,25.73
2022-11-14T10:17:40.888Z,25.48
2022-11-14T10:20:29.149Z,24.90
2022-11-14T10:23:35.153Z,25.00
2022-11-14T10:26:27.220Z,25.30
2022-11-14T10:29:42.556Z,24.88
2022-11-14T10:32:31.132Z,24.25
2022-11-14T10:35:21.939Z,23.13
2022-11-14T10:38:07.545Z,22.65
2022-11-14T10:41:00.926Z,21.05
2022-11-14T10:43:51.944Z,23.33
2022-11-14T10:46:45.743Z,22.05
2022-11-14T10:49:36.255Z,22.52
2022-11-14T10:52:26.597Z,21.67
2022-11-14T10:55:17.677Z,22.23
2022-11-14T10:58:13.732Z,22.67
2022-11-14T11:01:37.847Z,23.10
2022-11-14T11:04:34.542Z,22.08
2022-11-14T11:08:10.296Z,21.70
2022-11-14T11:11:29.905Z,21.67
2022-11-14T11:14:19.694Z,20.42
2022-11-14T11:17:26.829Z,21.38
2022-11-14T11:20:41.082Z,21.25
2022-11-14T11:23:27.815Z,21.38
2022-11-14T11:26:39.517Z,21.80
2022-11-14T11:29:25.055Z,19.90
2022-11-14T11:32:10.696Z,20.05
2022-11-14T11:34:59.522Z,20.25
2022-11-14T11:38:02.960Z,20.00
2022-11-14T11:40:54.890Z,19.67
2022-11-14T11:43:53.945Z,18.10
2022-11-14T11:46:45.079Z,17.65
2022-11-14T11:49:41.604Z,18.17
2022-11-14T11:52:30.198Z,17.45
2022-11-14T11:55:20.758Z,17.85
2022-11-14T11:58:20.956Z,18.45
2022-11-14T12:01:09.718Z,17.83
2022-11-14T12:03:55.595Z,17.80
2022-11-14T12:07:10.259Z,17.42
2022-11-14T12:10:12.860Z,18.25
2022-11-14T12:13:32.210Z,16.52
2022-11-14T12:16:48.006Z,17.30
2022-11-14T12:19:40.715Z,17.33
2022-11-14T12:22:47.828Z,16.65
2022-11-14T12:25:57.310Z,17.35
2022-11-14T12:29:19.857Z,16.95
2022-11-14T12:32:15.710Z,16.70
2022-11-14T12:35:05.528Z,15.75
2022-11-14T12:37:56.069Z,16.55
2022-11-14T12:40:51.470Z,16.95
2022-11-14T12:43:40.280Z,16.55
2022-11-14T12:46:26.852Z,16.02
2022-11-14T12:49:47.809Z,15.82
2022-11-14T12:52:46.344Z,16.20
2022-11-14T12:55:31.573Z,16.30
2022-11-14T12:58:35.759Z,14.90
2022-11-14T13:01:37.880Z,16.48
2022-11-14T13:04:42.521Z,15.48
2022-11-14T13:07:42.926Z,14.55
2022-11-14T13:10:39.993Z,16.08
2022-11-14T13:13:43.690Z,15.95
2022-11-14T13:16:54.016Z,16.55
2022-11-14T13:20:04.900Z,15.60
2022-11-14T13:25:36.154Z,15.82
2022-11-14T13:28:45.318Z,15.57
2022-11-14T13:31:33.684Z,15.73
2022-11-14T13:34:34.215Z,15.85
2022-11-14T13:37:55.408Z,16.00
2022-11-14T13:41:04.769Z,15.40
2022-11-14T13:43:57.070Z,15.60
2022-11-14T13:46:54.859Z,15.90
2022-11-14T13:50:02.101Z,16.67
2022-11-14T13:52:50.653Z,15.85
2022-11-14T13:55:59.623Z,15.95
2022-11-14T13:59:09.854Z,16.17
2022-11-14T14:02:05.130Z,16.35
2022-11-14T14:05:40.001Z,15.25
2022-11-14T14:08:50.033Z,15.50
2022-11-14T14:11:53.378Z,15.20
2022-11-14T14:15:00.485Z,15.30
2022-11-14T14:18:10.407Z,15.65
2022-11-14T14:21:03.436Z,15.57
2022-11-14T14:23:53.609Z,16.42
2022-11-14T14:27:18.612Z,15.40
2022-11-14T14:30:08.632Z,15.60
2022-11-14T14:33:09.093Z,16.13
2022-11-14T14:35:54.862Z,15.25
2022-11-14T14:38:40.202Z,16.45
2022-11-14T14:41:31.159Z,16.25
2022-11-14T14:44:23.376Z,15.57
2022-11-14T14:47:37.331Z,15.40
2022-11-14T14:50:27.052Z,15.40
2022-11-14T14:53:31.343Z,15.02
2022-11-14T14:56:22.046Z,15.85
2022-11-14T14:59:19.434Z,16.23
2022-11-14T15:02:15.423Z,16.38
2022-11-14T15:05:01.965Z,16.55
2022-11-14T15:07:49.554Z,16.17
2022-11-14T15:10:35.320Z,16.80
2022-11-14T15:13:21.096Z,16.90
2022-11-14T15:16:07.858Z,17.08
2022-11-14T15:18:55.418Z,16.95
2022-11-14T15:21:41.010Z,17.95
2022-11-14T15:24:26.867Z,17.65
2022-11-14T15:27:20.365Z,17.38
2022-11-14T15:30:07.907Z,17.67
2022-11-14T15:32:56.241Z,17.40
2022-11-14T15:35:41.742Z,18.20
2022-11-14T15:41:33.813Z,16.67
2022-11-14T15:44:33.367Z,17.10
2022-11-14T15:47:36.848Z,15.95
2022-11-14T15:50:30.184Z,17.10
2022-11-14T15:53:25.639Z,17.63
2022-11-14T15:56:13.004Z,17.23
2022-11-14T15:58:58.415Z,17.55
2022-11-14T16:01:46.090Z,20.63
2022-11-14T16:04:35.220Z,20.30
2022-11-14T16:07:22.063Z,20.70
2022-11-14T16:10:19.645Z,21.00
2022-11-14T16:13:05.358Z,22.75
2022-11-14T16:15:50.924Z,21.00
2022-11-14T16:18:36.529Z,21.08
2022-11-14T16:21:22.107Z,22.70
2022-11-14T16:24:15.027Z,22.27
2022-11-14T16:27:00.579Z,22.52
2022-11-14T16:29:45.823Z,23.27
2022-11-14T16:32:31.198Z,24.08
2022-11-14T16:35:22.697Z,24.00
2022-11-14T16:38:12.305Z,25.38
2022-11-14T16:41:00.209Z,26.00
2022-11-14T16:43:46.104Z,26.42
2022-11-14T16:46:31.966Z,26.13
2022-11-14T16:49:19.651Z,25.45
2022-11-14T16:52:08.603Z,26.20
2022-11-14T16:54:54.116Z,26.83
2022-11-14T16:57:40.220Z,26.73
2022-11-14T17:00:25.911Z,27.30
2022-11-14T17:03:11.313Z,28.02
2022-11-14T17:05:56.814Z,28.42
2022-11-14T17:08:42.277Z,27.70
2022-11-14T17:11:28.067Z,28.35
2022-11-14T17:14:13.756Z,28.27
2022-11-14T17:17:02.684Z,27.52
2022-11-14T17:19:48.193Z,28.10
2022-11-14T17:22:33.523Z,28.70
2022-11-14T17:25:19.190Z,28.42
2022-11-14T17:28:04.986Z,28.10
2022-11-14T17:30:50.120Z,24.98
2022-11-14T17:33:36.110Z,25.65
2022-11-14T17:36:22.687Z,24.98
2022-11-14T17:39:08.079Z,25.30
2022-11-14T17:41:53.488Z,25.40
2022-11-14T17:44:38.741Z,25.08
2022-11-14T17:47:24.003Z,25.38
2022-11-14T17:50:09.970Z,25.48
2022-11-14T17:52:55.437Z,25.70
2022-11-14T17:55:40.810Z,25.83
2022-11-14T17:58:31.187Z,25.05
2022-11-14T18:01:22.257Z,25.55
2022-11-14T18:06:53.536Z,23.52
2022-11-14T18:09:39.302Z,24.15
2022-11-14T18:12:24.365Z,24.25
2022-11-14T18:15:10.160Z,23.80
2022-11-14T18:17:56.020Z,24.15
2022-11-14T18:20:41.521Z,23.13
2022-11-14T18:23:27.040Z,22.83
2022-11-14T18:26:14.829Z,22.67
2022-11-14T18:29:04.226Z,22.60
2022-11-14T18:31:49.434Z,22.10
2022-11-14T18:34:37.115Z,20.92
2022-11-14T18:37:23.314Z,20.02
2022-11-14T18:40:16.227Z,21.20
2022-11-14T18:43:02.494Z,21.05
2022-11-14T18:45:48.222Z,22.17
2022-11-14T18:48:33.639Z,21.65
2022-11-14T18:51:22.114Z,21.33
2022-11-14T18:54:11.483Z,21.60
2022-11-14T18:56:57.633Z,20.88
2022-11-14T18:59:42.994Z,20.27
2022-11-14T19:02:28.359Z,20.90
2022-11-14T19:05:13.795Z,22.75
2022-11-14T19:07:59.279Z,20.92
2022-11-14T19:10:44.450Z,22.38
2022-11-14T19:13:30.234Z,21.90
2022-11-14T19:16:15.744Z,21.67
2022-11-14T19:19:01.902Z,22.15
2022-11-14T19:21:51.024Z,21.17
2022-11-14T19:24:36.805Z,21.63
2022-11-14T19:27:22.371Z,22.08
2022-11-14T19:30:08.509Z,22.15
2022-11-14T19:32:54.025Z,22.33
2022-11-14T19:35:39.503Z,24.27
2022-11-14T19:38:25.027Z,22.50
2022-11-14T19:41:25.143Z,23.67
2022-11-14T19:44:10.606Z,21.73
2022-11-14T19:46:55.924Z,25.95
2022-11-14T19:49:42.950Z,24.90
2022-11-14T19:52:28.397Z,25.73
2022-11-14T19:55:13.627Z,24.48
2022-11-14T19:58:00.223Z,24.45
2022-11-14T20:00:45.548Z,25.98
2022-11-14T20:03:31.589Z,25.95
2022-11-14T20:06:28.898Z,25.25
2022-11-14T20:09:16.946Z,25.10
2022-11-14T20:12:02.723Z,26.50
2022-11-14T20:14:48.138Z,26.40
2022-11-14T20:17:36.023Z,25.52
2022-11-14T20:20:24.370Z,25.88
2022-11-14T20:23:09.992Z,25.83
2022-11-14T20:25:55.792Z,26.95
2022-11-14T20:28:42.521Z,26.35
2022-11-14T20:31:30.100Z,26.52
2022-11-14T20:34:15.669Z,25.23
2022-11-14T20:37:16.430Z,26.48
2022-11-14T20:40:01.619Z,25.87
2022-11-14T20:42:49.043Z,25.27
2022-11-14T20:45:34.564Z,25.05
2022-11-14T20:48:19.671Z,25.33
2022-11-14T20:51:11.834Z,26.48
2022-11-14T20:53:56.882Z,26.58
2022-11-14T20:56:42.307Z,25.55
2022-11-14T20:59:27.746Z,26.80
2022-11-14T21:02:14.402Z,26.35
2022-11-14T21:05:01.018Z,25.27
2022-11-14T21:07:46.421Z,25.95
2022-11-14T21:10:46.067Z,25.25
2022-11-14T21:13:49.695Z,24.48
2022-11-14T21:16:37.356Z,24.95
2022-11-14T21:19:22.873Z,25.50
2022-11-14T21:22:08.484Z,25.95
2022-11-14T21:24:53.772Z,24.67
2022-11-14T21:27:39.157Z,25.63
2022-11-14T21:30:24.579Z,25.10
2022-11-14T21:33:09.906Z,25.38
2022-11-14T21:35:55.401Z,24.25
2022-11-14T21:38:41.439Z,24.73
2022-11-14T21:41:28.688Z,25.05
2022-11-14T21:44:16.789Z,25.55
2022-11-14T21:47:02.454Z,25.65
2022-11-14T21:49:47.719Z,26.20
2022-11-14T21:52:33.168Z,26.58
2022-11-14T21:55:18.531Z,25.90
2022-11-14T21:58:03.775Z,25.98
2022-11-14T22:00:49.267Z,25.42
2022-11-14T22:03:53.565Z,25.13
2022-11-14T22:06:42.653Z,24.10
2022-11-14T22:09:28.613Z,24.40
2022-11-14T22:12:14.000Z,23.58
2022-11-14T22:14:59.394Z,23.25
2022-11-14T22:17:44.791Z,24.33
2022-11-14T22:20:30.166Z,24.90
2022-11-14T22:23:15.524Z,23.70
2022-11-14T22:26:01.088Z,23.42
2022-11-14T22:28:47.119Z,24.50
2022-11-14T22:31:32.764Z,24.42
2022-11-14T22:34:18.108Z,24.35
2022-11-14T22:37:03.681Z,24.13
2022-11-14T22:39:48.999Z,23.88
2022-11-14T22:42:34.366Z,23.35
2022-11-14T22:45:20.211Z,24.45
2022-11-14T22:48:05.507Z,23.48
2022-11-14T22:51:07.502Z,23.23
2022-11-14T22:53:57.529Z,22.90
2022-11-14T22:56:42.720Z,22.77
2022-11-14T22:59:28.162Z,22.20
2022-11-14T23:02:13.436Z,22.08
2022-11-14T23:04:58.853Z,21.23
2022-11-14T23:07:44.156Z,22.08
2022-11-14T23:10:40.716Z,21.75
2022-11-14T23:13:29.097Z,21.90
2022-11-14T23:16:18.625Z,20.98
2022-11-14T23:19:04.887Z,21.30
2022-11-14T23:21:50.538Z,21.55
2022-11-14T23:24:36.543Z,20.77
2022-11-14T23:27:22.178Z,21.98
2022-11-14T23:30:09.236Z,21.83
2022-11-14T23:32:54.813Z,21.95
2022-11-14T23:35:41.585Z,21.92
2022-11-14T23:38:27.190Z,20.88
2022-11-14T23:41:31.406Z,21.70
2022-11-14T23:44:17.693Z,21.42
2022-11-14T23:47:03.600Z,20.10
2022-11-14T23:49:49.650Z,19.88
2022-11-14T23:52:35.310Z,21.17
2022-11-14T23:55:21.475Z,20.20
2022-11-14T23:58:07.318Z,19.80
